createdAt,value
2022-12-22T00:04:50.455Z,13.9
2022-12-22T00:10:25.397Z,13.7
2022-12-22T00:16:00.263Z,13.7
2022-12-22T00:21:36.058Z,13.6
2022-12-22T00:27:11.216Z,13.6
2022-12-22T00:32:47.199Z,13.5
2022-12-22T00:38:23.952Z,13.4
2022-12-22T00:44:00.241Z,13.3
2022-12-22T00:49:57.224Z,13.3
2022-12-22T00:55:30.280Z,13.2
2022-12-22T01:01:05.266Z,13.2
2022-12-22T01:06:50.044Z,13.2
2022-12-22T01:12:34.278Z,13.2
2022-12-22T01:18:16.846Z,13.2
2022-12-22T01:23:55.388Z,13.2
2022-12-22T01:29:44.766Z,13.1
2022-12-22T01:35:24.489Z,12.9
2022-12-22T01:40:59.940Z,12.8
2022-12-22T01:46:56.574Z,12.8
2022-12-22T01:52:29.371Z,12.9
2022-12-22T01:58:07.420Z,12.9
2022-12-22T02:04:01.300Z,12.7
2022-12-22T02:09:36.989Z,12.6
2022-12-22T02:15:13.169Z,12.5
2022-12-22T02:20:48.379Z,12.5
2022-12-22T02:26:24.388Z,12.5
2022-12-22T02:32:18.004Z,12.4
2022-12-22T02:37:53.301Z,12.3
2022-12-22T02:43:32.565Z,12.4
2022-12-22T02:49:29.503Z,12.5
2022-12-22T02:55:03.459Z,12.5
2022-12-22T03:00:39.381Z,12.4
2022-12-22T03:06:17.595Z,12.4
2022-12-22T03:12:34.982Z,12.5
2022-12-22T03:18:10.114Z,12.5
2022-12-22T03:23:45.231Z,12.4
2022-12-22T03:29:20.223Z,12.3
2022-12-22T03:34:58.321Z,12.3
2022-12-22T03:40:33.195Z,12.3
2022-12-22T03:46:49.033Z,12.4
2022-12-22T03:52:22.789Z,12.4
2022-12-22T03:57:59.084Z,12.4
2022-12-22T04:03:43.863Z,12.3
2022-12-22T04:09:20.150Z,12.2
2022-12-22T04:14:55.467Z,12.1
2022-12-22T04:20:30.769Z,11.9
2022-12-22T04:26:06.201Z,11.9
2022-12-22T04:31:40.970Z,11.8
2022-12-22T04:37:18.157Z,11.8
2022-12-22T04:42:54.845Z,11.9
2022-12-22T04:48:59.785Z,11.9
2022-12-22T04:54:33.794Z,11.9
2022-12-22T05:00:09.246Z,11.8
2022-12-22T05:05:45.785Z,11.8
2022-12-22T05:11:21.102Z,11.8
2022-12-22T05:16:56.522Z,11.8
2022-12-22T05:22:40.785Z,11.8
2022-12-22T05:28:28.604Z,11.7
2022-12-22T05:34:04.315Z,11.6
2022-12-22T05:39:40.387Z,11.6
2022-12-22T05:45:16.635Z,11.6
2022-12-22T05:51:01.277Z,11.6
2022-12-22T05:56:36.260Z,11.5
2022-12-22T06:02:12.728Z,11.5
2022-12-22T06:07:50.082Z,11.5
2022-12-22T06:13:28.867Z,11.6
2022-12-22T06:19:05.409Z,11.6
2022-12-22T06:24:45.319Z,11.5
2022-12-22T06:30:20.279Z,11.5
2022-12-22T06:36:07.959Z,11.5
2022-12-22T06:41:43.427Z,11.5
2022-12-22T06:47:58.185Z,11.5
2022-12-22T06:53:31.250Z,11.4
2022-12-22T06:59:07.808Z,11.4
2022-12-22T07:04:42.732Z,11.3
2022-12-22T07:10:18.199Z,10.4
2022-12-22T07:15:59.876Z,9.5
2022-12-22T07:21:39.236Z,9.1
2022-12-22T07:27:15.447Z,9.2
2022-12-22T07:32:59.814Z,9.2
2022-12-22T07:38:34.893Z,9.3
2022-12-22T07:44:10.231Z,9.1
2022-12-22T07:49:45.798Z,8.9
2022-12-22T07:55:20.840Z,8.8
2022-12-22T08:00:56.119Z,8.9
2022-12-22T08:06:34.402Z,9.8
2022-12-22T08:12:10.173Z,10
2022-12-22T08:17:46.706Z,10
2022-12-22T08:24:06.866Z,10.4
2022-12-22T08:29:43.221Z,10
2022-12-22T08:35:22.401Z,10.6
2022-12-22T08:41:04.165Z,11.5
2022-12-22T08:47:14.976Z,11.3
2022-12-22T08:52:51.078Z,11.1
2022-12-22T08:58:26.816Z,11.1
2022-12-22T09:04:05.177Z,11.1
2022-12-22T09:09:42.889Z,10.5
2022-12-22T09:15:58.738Z,11.4
2022-12-22T09:22:33.785Z,11.9
2022-12-22T09:28:15.093Z,11.2
2022-12-22T09:33:53.656Z,12
2022-12-22T09:39:29.695Z,12.4
2022-12-22T09:45:07.106Z,12.7
2022-12-22T09:50:53.359Z,13.3
2022-12-22T09:56:39.226Z,13.1
2022-12-22T10:02:15.557Z,13.5
2022-12-22T10:08:00.740Z,13.2
2022-12-22T10:13:40.473Z,14.2
2022-12-22T10:19:43.213Z,14.7
2022-12-22T10:25:18.913Z,14.2
2022-12-22T10:32:04.198Z,14.3
2022-12-22T10:38:29.020Z,14.8
2022-12-22T10:44:09.269Z,15.2
2022-12-22T10:50:06.408Z,15.8
2022-12-22T10:55:46.218Z,16.3
2022-12-22T11:01:57.813Z,16.6
2022-12-22T11:07:35.298Z,16.9
2022-12-22T11:13:10.660Z,17.4
2022-12-22T11:18:49.203Z,18
2022-12-22T11:24:27.399Z,19.3
2022-12-22T11:30:02.977Z,18.8
2022-12-22T11:35:38.943Z,19.3
2022-12-22T11:41:30.343Z,19.4
2022-12-22T11:47:27.799Z,19.3
2022-12-22T11:53:00.756Z,19.3
2022-12-22T11:58:59.057Z,20.1
2022-12-22T12:05:36.811Z,20.6
2022-12-22T12:11:13.175Z,19.9
2022-12-22T12:16:48.907Z,19.8
2022-12-22T12:22:33.024Z,20.4
2022-12-22T12:28:20.996Z,20.9
2022-12-22T12:34:04.298Z,20.6
2022-12-22T12:39:39.586Z,20.3
2022-12-22T12:45:17.451Z,20.3
2022-12-22T12:50:56.534Z,20.3
2022-12-22T12:56:31.799Z,21
2022-12-22T13:02:12.139Z,20.7
2022-12-22T13:08:11.502Z,20.2
2022-12-22T13:14:12.605Z,20.6
2022-12-22T13:20:00.433Z,21
2022-12-22T13:25:57.749Z,20.2
2022-12-22T13:31:36.298Z,20.1
2022-12-22T13:37:13.458Z,19.6
2022-12-22T13:42:49.543Z,19.2
2022-12-22T13:48:47.414Z,19.2
2022-12-22T13:54:20.489Z,19
2022-12-22T14:00:01.768Z,18.4
2022-12-22T14:05:38.023Z,17.9
2022-12-22T14:11:22.140Z,18
2022-12-22T14:17:09.737Z,18.5
2022-12-22T14:23:29.004Z,18.9
2022-12-22T14:29:39.529Z,18.7
2022-12-22T14:35:25.812Z,18.4
2022-12-22T14:42:44.404Z,18.4
2022-12-22T14:48:41.314Z,18.6
2022-12-22T14:54:14.014Z,18.6
2022-12-22T14:59:49.395Z,18.4
2022-12-22T15:05:24.838Z,18.3
2022-12-22T15:10:59.956Z,18.1
2022-12-22T15:16:38.905Z,18
2022-12-22T15:22:16.071Z,18
2022-12-22T15:27:53.313Z,18
2022-12-22T15:33:34.786Z,17.8
2022-12-22T15:39:14.873Z,17.7
2022-12-22T15:45:01.298Z,17.7
2022-12-22T15:50:59.759Z,17.6
2022-12-22T15:56:42.780Z,17.6
2022-12-22T16:03:16.824Z,17.4
2022-12-22T16:09:08.542Z,17.3
2022-12-22T16:14:49.905Z,17.2
2022-12-22T16:20:42.992Z,17
2022-12-22T16:26:18.412Z,16.9
2022-12-22T16:31:55.193Z,16.8
2022-12-22T16:37:31.019Z,16.7
2022-12-22T16:50:18.748Z,16.5
2022-12-22T16:56:04.188Z,16.4
2022-12-22T17:02:46.449Z,16.4
2022-12-22T17:08:50.181Z,16.2
2022-12-22T17:14:47.592Z,16.1
2022-12-22T17:20:35.637Z,16
2022-12-22T17:26:10.233Z,15.7
2022-12-22T17:31:56.601Z,15.4
2022-12-22T17:37:42.374Z,15.4
2022-12-22T17:43:20.336Z,15.5
2022-12-22T17:49:17.506Z,15.7
2022-12-22T17:54:50.932Z,15.6
2022-12-22T18:00:38.964Z,15.6
2022-12-22T18:06:19.637Z,15.6
2022-12-22T18:11:57.307Z,15.4
2022-12-22T18:17:58.719Z,15.1
2022-12-22T18:23:43.217Z,15.2
2022-12-22T18:29:47.396Z,15.1
2022-12-22T18:35:29.949Z,14.9
2022-12-22T18:41:24.281Z,14.9
2022-12-22T18:47:47.262Z,14.8
2022-12-22T18:53:20.432Z,14.8
2022-12-22T18:58:59.766Z,15.2
2022-12-22T19:04:35.020Z,15.2
2022-12-22T19:10:20.975Z,15.2
2022-12-22T19:15:58.234Z,15.3
2022-12-22T19:21:35.706Z,15.3
2022-12-22T19:27:10.937Z,15.3
2022-12-22T19:32:49.992Z,15.3
2022-12-22T19:38:26.702Z,15.3
2022-12-22T19:44:27.584Z,15.3
2022-12-22T19:50:03.197Z,15.3
2022-12-22T19:55:38.256Z,15.3
2022-12-22T20:01:15.654Z,15.4
2022-12-22T20:07:11.982Z,15.4
2022-12-22T20:12:49.551Z,15.4
2022-12-22T20:18:42.170Z,15.3
2022-12-22T20:24:19.512Z,15.3
2022-12-22T20:30:03.816Z,15.3
2022-12-22T20:35:42.462Z,15.2
2022-12-22T20:41:39.892Z,15.2
2022-12-22T20:47:27.243Z,15.1
2022-12-22T20:53:02.534Z,15
2022-12-22T20:58:45.634Z,14.9
2022-12-22T21:04:21.388Z,14.9
2022-12-22T21:09:57.797Z,14.8
2022-12-22T21:15:47.215Z,14.7
2022-12-22T21:21:26.398Z,14.7
2022-12-22T21:27:10.474Z,14.7
2022-12-22T21:32:45.877Z,14.6
2022-12-22T21:38:26.903Z,14.6
2022-12-22T21:44:04.844Z,14.6
2022-12-22T21:49:45.679Z,14.6
2022-12-22T21:55:37.492Z,14.6
2022-12-22T22:01:13.241Z,14.4
2022-12-22T22:06:50.160Z,14.4
2022-12-22T22:12:28.322Z,14.5
2022-12-22T22:18:34.274Z,14.6
2022-12-22T22:24:41.778Z,14.6
2022-12-22T22:30:41.946Z,14.6
2022-12-22T22:37:06.085Z,14.5
2022-12-22T22:43:10.999Z,14.4
2022-12-22T22:49:13.785Z,14.4
2022-12-22T22:54:46.712Z,14.4
2022-12-22T23:00:22.665Z,14.4
2022-12-22T23:06:11.196Z,14.4
2022-12-22T23:11:50.001Z,14.2
2022-12-22T23:17:29.760Z,14.1
2022-12-22T23:23:07.201Z,14
2022-12-22T23:28:42.847Z,14
2022-12-22T23:34:48.413Z,13.9
2022-12-22T23:40:50.897Z,13.9
2022-12-22T23:46:52.099Z,13.8
2022-12-22T23:52:27.855Z,13.7
2022-12-22T23:58:04.412Z,13.7
